Time;durP1;ratioP1;P1;durP2;ratioP2;P2;SDS_P1;SDS_P2;PMS_P1;PMS_P2;Temp;Humidity;BMP_temperature;BMP_pressure;BME280_temperature;BME280_humidity;BME280_pressure;Samples;Min_cycle;Max_cycle;Signal;HPM_P1;HPM_P2
2021/07/20 00:01:13;;;;;;;2.30;1.50;;;;;;;;;;4999661;28;20061;-76
2021/07/20 00:03:39;;;;;;;4.47;1.70;;;;;;;;;;4995471;28;20124;-77
2021/07/20 00:06:06;;;;;;;4.18;1.77;;;;;;;;;;5008042;28;20046;-77
2021/07/20 00:08:32;;;;;;;3.05;1.58;;;;;;;;;;5002369;28;20048;-77
2021/07/20 00:10:59;;;;;;;3.17;1.65;;;;;;;;;;4978190;28;21289;-76
2021/07/20 00:13:26;;;;;;;3.10;1.48;;;;;;;;;;4991180;28;20120;-76
2021/07/20 00:15:55;;;;;;;2.28;1.20;;;;;;;;;;5004907;28;20092;-77
2021/07/20 00:18:33;;;;;;;3.45;1.80;;;;;;;;;;5007088;28;20050;-76
2021/07/20 00:21:00;;;;;;;4.30;1.50;;;;;;;;;;5004309;28;20061;-76
2021/07/20 00:23:27;;;;;;;2.75;1.67;;;;;;;;;;5009259;28;20064;-77
2021/07/20 00:25:53;;;;;;;5.30;1.70;;;;;;;;;;4994792;28;20030;-77
2021/07/20 00:28:20;;;;;;;3.05;1.77;;;;;;;;;;5000151;28;20062;-76
2021/07/20 00:30:47;;;;;;;2.80;1.40;;;;;;;;;;4999534;28;20053;-77
2021/07/20 00:33:14;;;;;;;2.78;1.63;;;;;;;;;;5002947;28;20459;-76
2021/07/20 00:35:40;;;;;;;3.60;1.70;;;;;;;;;;5001991;28;20061;-77
2021/07/20 00:38:07;;;;;;;3.72;1.35;;;;;;;;;;5001474;28;20068;-76
2021/07/20 00:40:33;;;;;;;3.72;2.05;;;;;;;;;;5005198;28;20064;-77
2021/07/20 00:43:00;;;;;;;3.28;1.55;;;;;;;;;;4979022;28;20053;-76
2021/07/20 00:45:27;;;;;;;4.72;1.60;;;;;;;;;;5007417;28;20053;-77
2021/07/20 00:47:53;;;;;;;4.10;2.15;;;;;;;;;;4994125;28;20034;-77
2021/07/20 00:50:22;;;;;;;4.78;1.92;;;;;;;;;;5008605;28;20053;-77
2021/07/20 00:52:49;;;;;;;4.68;1.92;;;;;;;;;;4993159;28;20096;-77
2021/07/20 00:55:16;;;;;;;4.22;1.70;;;;;;;;;;5016544;28;20053;-77
2021/07/20 00:57:43;;;;;;;3.25;1.50;;;;;;;;;;5002962;28;20130;-77
2021/07/20 01:00:11;;;;;;;4.45;1.90;;;;;;;;;;5006140;28;20450;-76
2021/07/20 01:02:37;;;;;;;4.15;1.90;;;;;;;;;;5010498;28;20058;-77
2021/07/20 01:05:11;;;;;;;3.38;1.70;;;;;;;;;;5003649;28;21242;-77
2021/07/20 01:07:38;;;;;;;2.72;1.50;;;;;;;;;;5000331;28;20074;-77
2021/07/20 01:10:08;;;;;;;3.13;1.88;;;;;;;;;;4997127;28;21836;-75
2021/07/20 01:12:37;;;;;;;4.68;1.92;;;;;;;;;;4999847;28;20525;-75
2021/07/20 01:15:04;;;;;;;5.25;2.13;;;;;;;;;;5003277;28;20541;-76
2021/07/20 01:17:30;;;;;;;4.78;1.88;;;;;;;;;;5002211;28;20054;-76
2021/07/20 01:19:57;;;;;;;3.20;1.77;;;;;;;;;;4998527;28;20065;-76
2021/07/20 01:22:28;;;;;;;3.85;1.85;;;;;;;;;;5011519;28;20077;-76
2021/07/20 01:24:56;;;;;;;3.58;1.60;;;;;;;;;;4998281;28;20065;-75
2021/07/20 01:27:22;;;;;;;3.65;1.80;;;;;;;;;;4998255;28;20058;-76
2021/07/20 01:29:50;;;;;;;3.83;1.83;;;;;;;;;;5008917;28;20665;-76
2021/07/20 01:32:18;;;;;;;4.68;1.70;;;;;;;;;;5012146;28;20659;-76
2021/07/20 01:34:45;;;;;;;4.85;2.00;;;;;;;;;;4995173;28;20069;-77
2021/07/20 01:37:12;;;;;;;4.45;1.77;;;;;;;;;;5010007;28;20057;-76
2021/07/20 01:39:41;;;;;;;4.15;1.90;;;;;;;;;;4997705;28;20607;-77
2021/07/20 01:42:07;;;;;;;3.67;2.00;;;;;;;;;;4990632;28;20687;-76
2021/07/20 01:44:34;;;;;;;6.25;2.13;;;;;;;;;;5008939;28;20065;-76
2021/07/20 01:47:00;;;;;;;4.75;1.75;;;;;;;;;;5004247;28;20062;-76
2021/07/20 01:49:27;;;;;;;3.92;1.67;;;;;;;;;;5007200;28;20066;-77
2021/07/20 01:51:54;;;;;;;4.93;1.90;;;;;;;;;;5003303;28;20089;-76
2021/07/20 01:54:21;;;;;;;4.22;1.85;;;;;;;;;;5003092;28;20061;-76
2021/07/20 01:56:48;;;;;;;4.18;1.98;;;;;;;;;;5008486;28;20061;-76
2021/07/20 01:59:15;;;;;;;3.00;1.48;;;;;;;;;;5010238;28;20709;-77
2021/07/20 02:01:52;;;;;;;4.20;2.08;;;;;;;;;;5008546;28;20029;-77
2021/07/20 02:09:52;;;;;;;2.58;1.60;;;;;;;;;;4992634;28;20124;-77
2021/07/20 02:12:19;;;;;;;3.40;1.55;;;;;;;;;;4974856;28;20045;-76
2021/07/20 02:14:48;;;;;;;3.80;1.38;;;;;;;;;;5011255;28;20053;-77
2021/07/20 02:17:15;;;;;;;3.47;2.08;;;;;;;;;;5012571;28;20053;-76
2021/07/20 02:19:54;;;;;;;3.22;1.60;;;;;;;;;;5006211;28;20061;-77
2021/07/20 02:22:21;;;;;;;4.05;2.00;;;;;;;;;;5003230;28;20074;-76
2021/07/20 02:24:49;;;;;;;4.57;2.17;;;;;;;;;;5003248;28;20509;-77
2021/07/20 02:27:18;;;;;;;5.00;2.20;;;;;;;;;;4981271;28;20088;-76
2021/07/20 02:29:45;;;;;;;4.28;2.00;;;;;;;;;;5015613;28;20061;-77
2021/07/20 02:32:11;;;;;;;7.45;2.53;;;;;;;;;;5017286;28;20053;-76
2021/07/20 02:34:39;;;;;;;3.72;1.90;;;;;;;;;;5007617;28;20065;-76
2021/07/20 02:37:06;;;;;;;3.53;1.75;;;;;;;;;;5007303;28;21337;-77
2021/07/20 02:39:33;;;;;;;3.17;1.80;;;;;;;;;;5007776;28;20373;-76
2021/07/20 02:41:59;;;;;;;3.10;1.67;;;;;;;;;;4998303;28;20147;-77
2021/07/20 02:44:27;;;;;;;4.07;1.80;;;;;;;;;;5001585;28;20116;-77
2021/07/20 02:46:54;;;;;;;5.15;2.40;;;;;;;;;;5004471;28;20105;-77
2021/07/20 02:49:20;;;;;;;5.07;1.95;;;;;;;;;;5016714;28;20111;-76
2021/07/20 02:51:48;;;;;;;4.30;2.03;;;;;;;;;;5002286;28;20064;-77
2021/07/20 02:54:17;;;;;;;6.18;2.10;;;;;;;;;;5012492;28;20050;-77
2021/07/20 02:56:43;;;;;;;4.63;1.40;;;;;;;;;;5016539;28;20084;-76
2021/07/20 02:59:11;;;;;;;4.15;2.00;;;;;;;;;;5004375;28;20076;-77
2021/07/20 03:01:38;;;;;;;5.53;2.30;;;;;;;;;;5000897;28;20077;-77
2021/07/20 03:04:06;;;;;;;5.10;2.17;;;;;;;;;;5004878;28;20340;-77
2021/07/20 03:06:33;;;;;;;4.35;1.90;;;;;;;;;;5006325;28;20061;-77
2021/07/20 03:09:00;;;;;;;3.70;2.13;;;;;;;;;;4999452;28;20074;-76
2021/07/20 03:11:31;;;;;;;5.30;2.00;;;;;;;;;;5007100;28;20048;-76
2021/07/20 03:14:00;;;;;;;4.18;2.33;;;;;;;;;;4988415;28;20057;-75
2021/07/20 03:16:27;;;;;;;4.30;1.90;;;;;;;;;;5010548;28;20061;-75
2021/07/20 03:18:55;;;;;;;4.53;2.10;;;;;;;;;;5005116;28;20705;-76
2021/07/20 03:21:22;;;;;;;4.15;2.10;;;;;;;;;;4995064;28;20076;-74
2021/07/20 03:23:50;;;;;;;3.33;2.03;;;;;;;;;;4989639;28;20073;-76
2021/07/20 03:26:17;;;;;;;3.70;1.83;;;;;;;;;;5007183;28;20045;-76
2021/07/20 03:28:44;;;;;;;4.07;2.15;;;;;;;;;;4999393;28;20066;-76
2021/07/20 03:31:10;;;;;;;3.15;1.83;;;;;;;;;;5004151;28;21508;-76
2021/07/20 03:33:38;;;;;;;4.03;1.90;;;;;;;;;;5007513;28;20066;-75
2021/07/20 03:36:06;;;;;;;4.63;1.70;;;;;;;;;;5011435;28;20061;-77
2021/07/20 03:38:33;;;;;;;4.15;2.00;;;;;;;;;;5001839;28;20935;-77
2021/07/20 03:41:00;;;;;;;3.22;1.95;;;;;;;;;;5000341;28;20544;-77
2021/07/20 03:43:27;;;;;;;4.15;2.10;;;;;;;;;;4996361;28;20064;-77
2021/07/20 03:45:55;;;;;;;4.00;2.10;;;;;;;;;;5004805;28;20076;-76
2021/07/20 03:48:21;;;;;;;3.50;2.10;;;;;;;;;;5003174;28;20041;-75
2021/07/20 03:50:50;;;;;;;3.97;1.98;;;;;;;;;;5002797;28;20061;-76
2021/07/20 03:53:17;;;;;;;5.95;2.10;;;;;;;;;;5006179;28;20061;-76
2021/07/20 03:55:47;;;;;;;5.47;2.13;;;;;;;;;;5005988;28;20502;-76
2021/07/20 03:58:15;;;;;;;2.38;1.83;;;;;;;;;;5002808;28;20597;-76
2021/07/20 04:00:41;;;;;;;2.90;1.80;;;;;;;;;;4997202;28;20061;-76
2021/07/20 04:06:12;;;;;;;4.47;2.47;;;;;;;;;;4965241;28;20057;-76
2021/07/20 04:08:39;;;;;;;3.40;1.90;;;;;;;;;;4993527;28;20046;-76
2021/07/20 04:11:06;;;;;;;4.57;2.10;;;;;;;;;;5005215;28;20120;-76
2021/07/20 04:13:32;;;;;;;3.67;2.00;;;;;;;;;;5005872;28;20133;-76
2021/07/20 04:16:04;;;;;;;3.65;2.10;;;;;;;;;;5007495;28;20125;-76
2021/07/20 04:18:31;;;;;;;5.47;2.28;;;;;;;;;;5001322;28;20062;-76
2021/07/20 04:20:58;;;;;;;3.58;2.38;;;;;;;;;;4988680;28;20046;-77
2021/07/20 04:23:25;;;;;;;4.20;1.80;;;;;;;;;;5012229;28;20069;-76
2021/07/20 04:25:53;;;;;;;3.25;2.08;;;;;;;;;;5007511;28;20053;-76
2021/07/20 04:28:20;;;;;;;5.25;2.22;;;;;;;;;;5013081;28;20057;-77
2021/07/20 04:30:47;;;;;;;3.20;1.90;;;;;;;;;;4989488;28;20061;-78
2021/07/20 04:33:15;;;;;;;3.58;1.75;;;;;;;;;;4994883;28;20093;-76
2021/07/20 04:35:42;;;;;;;3.13;1.65;;;;;;;;;;5004270;28;20088;-76
2021/07/20 04:38:11;;;;;;;4.32;2.28;;;;;;;;;;5007111;28;20084;-76
2021/07/20 04:40:40;;;;;;;3.85;2.20;;;;;;;;;;5012957;28;20052;-76
2021/07/20 04:43:12;;;;;;;4.28;2.30;;;;;;;;;;5010846;28;21720;-76
2021/07/20 04:45:42;;;;;;;3.40;1.98;;;;;;;;;;5008719;28;20062;-75
2021/07/20 04:48:09;;;;;;;5.25;2.10;;;;;;;;;;4987459;28;20057;-76
2021/07/20 04:50:36;;;;;;;5.80;2.38;;;;;;;;;;5014956;28;20112;-77
2021/07/20 04:53:05;;;;;;;3.47;1.70;;;;;;;;;;5014469;28;20061;-77
2021/07/20 04:55:34;;;;;;;4.68;1.98;;;;;;;;;;5004445;28;20105;-76
2021/07/20 04:58:02;;;;;;;3.00;1.73;;;;;;;;;;5005588;28;20065;-76
2021/07/20 05:00:28;;;;;;;3.95;1.70;;;;;;;;;;5013538;28;20558;-76
2021/07/20 05:02:57;;;;;;;4.10;2.00;;;;;;;;;;5003286;28;20061;-77
2021/07/20 05:05:25;;;;;;;3.88;1.80;;;;;;;;;;4997995;28;20045;-76
2021/07/20 05:07:55;;;;;;;4.28;1.95;;;;;;;;;;5007625;28;20061;-77
2021/07/20 05:10:21;;;;;;;3.60;1.70;;;;;;;;;;5007722;28;20477;-76
2021/07/20 05:12:48;;;;;;;3.40;1.80;;;;;;;;;;5006237;28;20108;-76
2021/07/20 05:15:15;;;;;;;2.90;1.58;;;;;;;;;;5008219;28;20033;-76
2021/07/20 05:17:42;;;;;;;3.45;2.17;;;;;;;;;;5006509;28;20058;-76
2021/07/20 05:20:09;;;;;;;4.10;1.98;;;;;;;;;;4987186;28;20454;-76
2021/07/20 05:22:36;;;;;;;3.70;1.90;;;;;;;;;;5000974;28;20458;-76
2021/07/20 05:25:04;;;;;;;4.40;2.03;;;;;;;;;;5016771;28;20076;-76
2021/07/20 05:27:31;;;;;;;3.03;1.73;;;;;;;;;;5007373;28;20054;-76
2021/07/20 05:29:58;;;;;;;4.78;2.05;;;;;;;;;;5005880;28;20041;-76
2021/07/20 05:32:25;;;;;;;3.60;1.90;;;;;;;;;;5008621;28;20088;-76
2021/07/20 05:34:52;;;;;;;3.90;2.35;;;;;;;;;;4983152;28;20050;-76
2021/07/20 05:37:19;;;;;;;4.68;2.25;;;;;;;;;;5007594;28;20058;-76
2021/07/20 05:39:46;;;;;;;5.15;1.98;;;;;;;;;;5009949;28;20509;-76
2021/07/20 05:42:13;;;;;;;3.10;1.65;;;;;;;;;;4988673;28;20108;-76
2021/07/20 05:44:39;;;;;;;3.45;2.13;;;;;;;;;;4991033;28;20539;-76
2021/07/20 05:47:08;;;;;;;4.28;2.45;;;;;;;;;;5015277;28;21424;-76
2021/07/20 05:49:35;;;;;;;4.72;2.33;;;;;;;;;;5005017;28;20062;-76
2021/07/20 05:52:02;;;;;;;5.68;2.80;;;;;;;;;;4986547;28;20057;-77
2021/07/20 05:54:30;;;;;;;3.47;2.40;;;;;;;;;;4989811;28;20077;-76
2021/07/20 05:56:57;;;;;;;3.78;2.10;;;;;;;;;;5007860;28;20120;-76
2021/07/20 05:59:24;;;;;;;5.32;2.10;;;;;;;;;;5010402;28;20061;-76
2021/07/20 06:01:54;;;;;;;3.78;2.30;;;;;;;;;;4998826;28;20053;-76
2021/07/20 06:04:21;;;;;;;3.78;2.20;;;;;;;;;;4999591;28;20053;-76
2021/07/20 06:06:51;;;;;;;4.95;2.47;;;;;;;;;;4996947;28;20138;-76
2021/07/20 06:09:18;;;;;;;4.82;2.30;;;;;;;;;;5009501;28;20061;-76
2021/07/20 06:11:46;;;;;;;5.75;2.80;;;;;;;;;;5005405;28;20064;-76
2021/07/20 06:14:13;;;;;;;4.13;2.65;;;;;;;;;;5002498;28;20053;-76
2021/07/20 06:16:41;;;;;;;5.00;2.47;;;;;;;;;;5007215;28;20054;-76
2021/07/20 06:19:07;;;;;;;6.18;2.70;;;;;;;;;;4996846;28;20139;-76
2021/07/20 06:21:35;;;;;;;4.57;2.85;;;;;;;;;;5004097;28;20054;-76
2021/07/20 06:24:02;;;;;;;6.47;3.03;;;;;;;;;;5006468;28;20058;-76
2021/07/20 06:26:29;;;;;;;5.65;2.50;;;;;;;;;;4998155;28;20446;-76
2021/07/20 06:28:58;;;;;;;4.72;2.90;;;;;;;;;;5008874;28;20493;-76
2021/07/20 06:31:25;;;;;;;4.93;2.58;;;;;;;;;;5002992;28;20065;-76
2021/07/20 06:33:54;;;;;;;6.03;3.10;;;;;;;;;;5004552;28;20074;-77
2021/07/20 06:36:21;;;;;;;6.00;2.83;;;;;;;;;;5013380;28;20050;-76
2021/07/20 06:38:47;;;;;;;4.55;2.90;;;;;;;;;;5007203;28;20550;-76
2021/07/20 06:41:14;;;;;;;5.57;2.88;;;;;;;;;;5007715;28;20053;-76
2021/07/20 06:43:41;;;;;;;5.80;3.45;;;;;;;;;;5005060;28;20119;-76
2021/07/20 06:46:07;;;;;;;4.20;2.90;;;;;;;;;;5001081;28;21093;-76
2021/07/20 06:48:35;;;;;;;5.30;2.88;;;;;;;;;;5014586;28;20761;-76
2021/07/20 06:51:01;;;;;;;4.85;3.63;;;;;;;;;;5005438;28;20065;-76
2021/07/20 06:53:29;;;;;;;5.38;2.95;;;;;;;;;;4995939;28;20064;-78
2021/07/20 06:56:00;;;;;;;6.13;3.45;;;;;;;;;;4996225;28;20070;-75
2021/07/20 06:58:28;;;;;;;9.00;3.65;;;;;;;;;;5013904;28;20108;-75
2021/07/20 07:01:01;;;;;;;5.95;3.20;;;;;;;;;;5004461;28;20062;-75
2021/07/20 07:03:30;;;;;;;6.60;3.67;;;;;;;;;;4999715;28;20112;-76
2021/07/20 07:05:57;;;;;;;4.93;3.15;;;;;;;;;;4995838;28;20500;-76
2021/07/20 07:08:24;;;;;;;7.28;3.42;;;;;;;;;;4996715;28;20099;-77
2021/07/20 07:10:51;;;;;;;5.28;3.40;;;;;;;;;;5017158;28;20147;-77
2021/07/20 07:13:18;;;;;;;6.82;3.88;;;;;;;;;;5017284;28;20508;-77
2021/07/20 07:15:45;;;;;;;7.03;3.95;;;;;;;;;;5009184;28;20033;-77
2021/07/20 07:18:11;;;;;;;6.88;3.83;;;;;;;;;;5003144;28;20509;-78
2021/07/20 07:20:38;;;;;;;6.63;3.72;;;;;;;;;;4999884;28;20095;-77
2021/07/20 07:23:06;;;;;;;7.05;3.50;;;;;;;;;;4999468;28;20116;-77
2021/07/20 07:25:32;;;;;;;6.68;3.75;;;;;;;;;;5013258;28;20509;-75
2021/07/20 07:27:59;;;;;;;9.55;4.18;;;;;;;;;;5015167;28;20087;-77
2021/07/20 07:30:27;;;;;;;7.55;3.67;;;;;;;;;;5007368;28;20062;-76
2021/07/20 07:32:54;;;;;;;7.10;3.78;;;;;;;;;;5000851;28;20065;-76
2021/07/20 07:35:20;;;;;;;5.72;3.67;;;;;;;;;;5017267;28;20064;-76
2021/07/20 07:37:47;;;;;;;7.20;4.15;;;;;;;;;;5013023;28;20057;-76
2021/07/20 07:40:14;;;;;;;6.65;4.13;;;;;;;;;;5006927;28;20057;-75
2021/07/20 07:42:42;;;;;;;7.60;4.03;;;;;;;;;;5010305;28;20080;-77
2021/07/20 07:45:09;;;;;;;5.82;3.45;;;;;;;;;;5003252;28;20067;-75
2021/07/20 07:47:37;;;;;;;8.25;4.15;;;;;;;;;;5007040;28;20057;-76
2021/07/20 07:50:07;;;;;;;6.85;4.00;;;;;;;;;;5014339;28;20067;-76
2021/07/20 07:52:36;;;;;;;10.95;4.60;;;;;;;;;;5013488;28;20058;-76
2021/07/20 07:55:03;;;;;;;8.73;4.72;;;;;;;;;;5012139;28;20057;-75
2021/07/20 07:57:29;;;;;;;8.00;4.00;;;;;;;;;;5002033;28;20513;-75
2021/07/20 07:59:58;;;;;;;8.23;3.83;;;;;;;;;;5007446;28;20065;-76
2021/07/20 08:02:29;;;;;;;8.40;4.10;;;;;;;;;;5009306;28;20100;-75
2021/07/20 08:04:56;;;;;;;8.73;4.55;;;;;;;;;;5014371;28;20702;-76
2021/07/20 08:07:22;;;;;;;6.90;4.03;;;;;;;;;;5004164;28;20069;-76
2021/07/20 08:09:51;;;;;;;8.48;4.70;;;;;;;;;;4970245;28;20061;-76
2021/07/20 08:12:18;;;;;;;8.35;4.40;;;;;;;;;;5006807;28;20057;-76
2021/07/20 08:14:44;;;;;;;8.63;4.65;;;;;;;;;;4997222;28;20034;-76
2021/07/20 08:17:11;;;;;;;7.40;4.53;;;;;;;;;;5001875;28;20069;-76
2021/07/20 08:19:39;;;;;;;8.13;4.47;;;;;;;;;;4998832;28;20111;-76
2021/07/20 08:22:10;;;;;;;7.78;4.05;;;;;;;;;;5007937;28;20507;-77
2021/07/20 08:24:37;;;;;;;7.53;3.95;;;;;;;;;;4992862;28;20077;-76
2021/07/20 08:27:24;;;;;;;7.43;4.38;;;;;;;;;;4996818;28;20488;-77
2021/07/20 08:29:52;;;;;;;7.65;4.50;;;;;;;;;;4976254;28;20120;-75
2021/07/20 08:32:21;;;;;;;7.85;4.93;;;;;;;;;;5011903;28;20535;-76
2021/07/20 08:34:53;;;;;;;8.98;5.32;;;;;;;;;;5010526;28;20064;-76
2021/07/20 08:37:21;;;;;;;8.75;5.07;;;;;;;;;;5001511;28;20076;-76
2021/07/20 08:39:49;;;;;;;9.45;5.43;;;;;;;;;;5009887;28;20148;-76
2021/07/20 08:42:39;;;;;;;8.70;4.95;;;;;;;;;;5015354;28;20450;-76
2021/07/20 08:45:12;;;;;;;9.05;5.45;;;;;;;;;;5015935;28;20065;-76
2021/07/20 08:47:41;;;;;;;10.05;4.65;;;;;;;;;;5015772;28;20088;-76
2021/07/20 08:50:17;;;;;;;8.13;4.50;;;;;;;;;;4995696;28;20936;-77
2021/07/20 08:52:46;;;;;;;8.88;4.70;;;;;;;;;;4993682;28;20057;-76
2021/07/20 08:55:22;;;;;;;10.35;4.93;;;;;;;;;;4999426;28;20050;-76
2021/07/20 08:57:58;;;;;;;7.50;4.50;;;;;;;;;;4990290;28;20753;-77
2021/07/20 09:00:33;;;;;;;8.90;4.38;;;;;;;;;;5000805;28;20053;-77
2021/07/20 09:02:59;;;;;;;7.93;3.97;;;;;;;;;;5005361;28;20042;-76
2021/07/20 09:05:27;;;;;;;9.63;4.78;;;;;;;;;;5007442;28;20049;-75
2021/07/20 09:07:58;;;;;;;9.85;5.80;;;;;;;;;;4999866;28;20065;-76
2021/07/20 09:10:26;;;;;;;8.45;4.90;;;;;;;;;;4988878;28;20492;-76
2021/07/20 09:12:52;;;;;;;8.73;4.75;;;;;;;;;;5003587;28;20054;-75
2021/07/20 09:15:25;;;;;;;10.13;4.45;;;;;;;;;;5009327;28;20061;-75
2021/07/20 09:18:03;;;;;;;7.90;3.85;;;;;;;;;;5006416;28;20050;-76
2021/07/20 09:20:32;;;;;;;8.50;4.30;;;;;;;;;;4977759;28;20038;-77
2021/07/20 09:23:18;;;;;;;7.72;4.25;;;;;;;;;;5000697;28;20057;-76
2021/07/20 09:25:49;;;;;;;8.93;4.43;;;;;;;;;;4984885;28;20042;-77
2021/07/20 09:28:23;;;;;;;7.35;4.47;;;;;;;;;;5008536;28;20303;-76
2021/07/20 09:30:51;;;;;;;7.97;4.47;;;;;;;;;;5008730;28;20053;-76
2021/07/20 09:33:36;;;;;;;6.65;3.80;;;;;;;;;;5003644;28;20069;-77
2021/07/20 09:36:02;;;;;;;8.48;4.57;;;;;;;;;;4996282;28;20388;-76
2021/07/20 09:38:34;;;;;;;7.82;4.43;;;;;;;;;;5019476;28;20074;-76
2021/07/20 09:41:01;;;;;;;8.75;4.50;;;;;;;;;;4995130;28;23004;-76
2021/07/20 09:43:27;;;;;;;8.27;4.30;;;;;;;;;;5005613;28;20068;-75
2021/07/20 09:45:59;;;;;;;6.45;3.50;;;;;;;;;;4985251;28;20065;-74
2021/07/20 09:48:29;;;;;;;7.85;4.30;;;;;;;;;;5005566;28;20057;-75
2021/07/20 09:51:10;;;;;;;7.93;4.20;;;;;;;;;;5004939;28;20061;-75
2021/07/20 09:53:55;;;;;;;7.43;4.13;;;;;;;;;;5002180;28;20604;-75
2021/07/20 09:56:30;;;;;;;5.75;3.83;;;;;;;;;;5003922;28;20478;-75
2021/07/20 09:59:15;;;;;;;7.50;4.32;;;;;;;;;;5007605;28;20132;-76
2021/07/20 10:02:01;;;;;;;7.88;3.92;;;;;;;;;;5003125;28;20104;-77
2021/07/20 10:04:43;;;;;;;8.60;3.90;;;;;;;;;;5005537;28;20120;-76
2021/07/20 10:07:15;;;;;;;8.60;4.57;;;;;;;;;;4971150;28;1141802;-76
2021/07/20 10:09:48;;;;;;;7.25;3.80;;;;;;;;;;4994452;28;20113;-77
2021/07/20 10:12:25;;;;;;;7.93;3.78;;;;;;;;;;5007380;28;20124;-76
2021/07/20 10:15:24;;;;;;;8.10;4.50;;;;;;;;;;5009032;28;20034;-76
2021/07/20 10:18:01;;;;;;;6.35;3.70;;;;;;;;;;4970462;28;20045;-77
2021/07/20 10:20:32;;;;;;;6.50;3.85;;;;;;;;;;5007322;28;20517;-76
2021/07/20 10:23:04;;;;;;;7.93;4.13;;;;;;;;;;5005152;28;20566;-76
2021/07/20 10:25:49;;;;;;;7.55;4.20;;;;;;;;;;5008375;28;20094;-76
2021/07/20 10:28:15;;;;;;;7.60;4.20;;;;;;;;;;5002459;28;21558;-75
2021/07/20 10:30:51;;;;;;;7.90;3.63;;;;;;;;;;4996807;28;20115;-77
2021/07/20 10:33:25;;;;;;;6.90;4.60;;;;;;;;;;5004992;28;20056;-76
2021/07/20 10:35:53;;;;;;;7.82;4.00;;;;;;;;;;5002740;28;20061;-75
2021/07/20 10:38:23;;;;;;;6.95;3.88;;;;;;;;;;5000843;28;20574;-75
2021/07/20 10:40:51;;;;;;;5.75;3.47;;;;;;;;;;4995944;28;20062;-75
2021/07/20 10:43:23;;;;;;;6.90;4.13;;;;;;;;;;5004470;28;20128;-76
2021/07/20 10:45:51;;;;;;;6.15;3.88;;;;;;;;;;4980017;28;20083;-76
2021/07/20 10:48:20;;;;;;;6.47;3.78;;;;;;;;;;5015885;28;20508;-76
2021/07/20 10:50:56;;;;;;;8.25;3.85;;;;;;;;;;5000641;28;20447;-75
2021/07/20 10:53:25;;;;;;;6.20;4.10;;;;;;;;;;5003138;28;20454;-76
2021/07/20 10:55:54;;;;;;;8.60;3.38;;;;;;;;;;5010420;28;20130;-75
2021/07/20 10:58:30;;;;;;;5.63;3.35;;;;;;;;;;4998768;28;20526;-76
2021/07/20 11:01:07;;;;;;;4.88;3.35;;;;;;;;;;5013164;28;20579;-75
2021/07/20 11:03:47;;;;;;;6.40;3.50;;;;;;;;;;5016924;28;20099;-76
2021/07/20 11:06:15;;;;;;;4.88;3.10;;;;;;;;;;4997754;28;21361;-76
2021/07/20 11:08:44;;;;;;;5.80;3.38;;;;;;;;;;5011068;28;20551;-75
2021/07/20 11:11:16;;;;;;;6.82;3.72;;;;;;;;;;5007628;28;20065;-76
2021/07/20 11:13:45;;;;;;;7.45;3.80;;;;;;;;;;4998980;28;20450;-77
2021/07/20 11:16:16;;;;;;;5.70;3.50;;;;;;;;;;5005739;28;20073;-75
2021/07/20 11:18:43;;;;;;;6.80;3.67;;;;;;;;;;5005818;28;20129;-77
2021/07/20 11:21:11;;;;;;;7.45;3.75;;;;;;;;;;5014722;28;20053;-77
2021/07/20 11:23:39;;;;;;;6.20;3.75;;;;;;;;;;5008062;28;20065;-76
2021/07/20 11:26:09;;;;;;;7.82;4.30;;;;;;;;;;5007380;28;20123;-76
2021/07/20 11:28:37;;;;;;;5.30;3.15;;;;;;;;;;5011709;28;20034;-77
2021/07/20 11:31:08;;;;;;;4.65;2.97;;;;;;;;;;4965293;28;20049;-77
2021/07/20 11:33:39;;;;;;;4.80;3.17;;;;;;;;;;5016915;28;20041;-77
2021/07/20 11:36:08;;;;;;;6.97;3.53;;;;;;;;;;5020411;28;20065;-77
2021/07/20 11:38:36;;;;;;;5.72;3.45;;;;;;;;;;5007334;28;20034;-78
2021/07/20 11:41:31;;;;;;;5.00;3.08;;;;;;;;;;4998918;28;20559;-77
2021/07/20 11:44:04;;;;;;;4.45;3.15;;;;;;;;;;5005724;28;20049;-77
2021/07/20 11:46:41;;;;;;;5.20;3.50;;;;;;;;;;5023761;28;20042;-77
2021/07/20 11:49:26;;;;;;;6.03;3.40;;;;;;;;;;5022671;28;20041;-75
2021/07/20 11:51:56;;;;;;;6.03;3.08;;;;;;;;;;5024922;28;20053;-76
2021/07/20 11:54:41;;;;;;;6.55;3.72;;;;;;;;;;4997399;28;20030;-78
2021/07/20 11:57:27;;;;;;;5.60;3.60;;;;;;;;;;5025448;28;20038;-76
2021/07/20 11:59:56;;;;;;;7.75;3.67;;;;;;;;;;5003771;28;20154;-76
2021/07/20 12:02:43;;;;;;;5.95;3.13;;;;;;;;;;5023818;28;20030;-77
2021/07/20 12:05:30;;;;;;;6.22;3.95;;;;;;;;;;5023885;28;20068;-78
2021/07/20 12:08:15;;;;;;;7.18;3.60;;;;;;;;;;5004937;28;20050;-76
2021/07/20 12:11:00;;;;;;;5.38;3.22;;;;;;;;;;5029488;28;20034;-79
2021/07/20 12:13:27;;;;;;;4.78;2.97;;;;;;;;;;5024460;28;20030;-77
2021/07/20 12:15:56;;;;;;;4.80;2.75;;;;;;;;;;4984827;28;20065;-77
2021/07/20 12:18:22;;;;;;;6.85;3.13;;;;;;;;;;5018269;28;20038;-76
2021/07/20 12:20:49;;;;;;;5.30;3.28;;;;;;;;;;5001550;28;20038;-77
2021/07/20 12:23:16;;;;;;;5.63;3.38;;;;;;;;;;5010885;28;20076;-76
2021/07/20 12:25:43;;;;;;;5.38;3.05;;;;;;;;;;5010107;28;20436;-77
2021/07/20 12:28:10;;;;;;;7.18;3.70;;;;;;;;;;5019680;28;20446;-75
2021/07/20 12:30:36;;;;;;;5.03;2.58;;;;;;;;;;5010737;28;20091;-75
2021/07/20 12:33:05;;;;;;;5.38;3.08;;;;;;;;;;5009046;28;20132;-75
2021/07/20 12:35:33;;;;;;;5.85;3.10;;;;;;;;;;4998767;28;20160;-76
2021/07/20 12:38:00;;;;;;;4.90;2.83;;;;;;;;;;4995507;28;20104;-76
2021/07/20 12:40:27;;;;;;;5.35;3.03;;;;;;;;;;5008282;28;20401;-76
2021/07/20 12:42:53;;;;;;;4.63;2.40;;;;;;;;;;5004691;28;20069;-76
2021/07/20 12:45:21;;;;;;;5.30;2.80;;;;;;;;;;5008697;28;20053;-76
2021/07/20 12:47:49;;;;;;;5.43;2.97;;;;;;;;;;5002169;28;20123;-77
2021/07/20 12:50:17;;;;;;;5.05;3.03;;;;;;;;;;4990972;28;20052;-75
2021/07/20 12:52:46;;;;;;;4.22;2.53;;;;;;;;;;5013156;28;20054;-76
2021/07/20 12:55:16;;;;;;;5.00;3.42;;;;;;;;;;5003849;28;20053;-76
2021/07/20 12:57:52;;;;;;;5.13;2.40;;;;;;;;;;5009952;28;20066;-78
2021/07/20 13:00:25;;;;;;;5.25;2.75;;;;;;;;;;5012995;28;20684;-77
2021/07/20 13:02:52;;;;;;;7.05;3.00;;;;;;;;;;4997823;28;20143;-77
2021/07/20 13:05:24;;;;;;;4.18;2.50;;;;;;;;;;5006012;28;20073;-77
2021/07/20 13:07:50;;;;;;;5.35;2.60;;;;;;;;;;4995991;28;20069;-77
2021/07/20 13:10:17;;;;;;;4.53;2.50;;;;;;;;;;5006744;28;20056;-77
2021/07/20 13:12:45;;;;;;;4.22;2.40;;;;;;;;;;4995449;28;20089;-73
2021/07/20 13:15:13;;;;;;;6.22;2.60;;;;;;;;;;5015774;28;20060;-75
2021/07/20 13:17:40;;;;;;;4.80;2.67;;;;;;;;;;5006082;28;20092;-76
2021/07/20 13:20:07;;;;;;;4.32;2.25;;;;;;;;;;5004555;28;20061;-76
2021/07/20 13:22:42;;;;;;;4.35;2.85;;;;;;;;;;5017291;28;20074;-76
2021/07/20 13:25:13;;;;;;;4.32;2.63;;;;;;;;;;4991234;28;20121;-75
2021/07/20 13:27:46;;;;;;;4.32;2.47;;;;;;;;;;4997573;28;20061;-77
2021/07/20 13:30:22;;;;;;;5.22;2.58;;;;;;;;;;5020402;28;20164;-76
2021/07/20 13:32:49;;;;;;;4.03;2.45;;;;;;;;;;5007683;28;20524;-77
2021/07/20 13:35:16;;;;;;;3.83;2.22;;;;;;;;;;5009209;28;20054;-76
2021/07/20 13:37:44;;;;;;;4.82;2.45;;;;;;;;;;5008613;28;20066;-77
2021/07/20 13:40:11;;;;;;;4.25;2.55;;;;;;;;;;5009244;28;20057;-76
2021/07/20 13:42:38;;;;;;;5.15;2.00;;;;;;;;;;5009236;28;20053;-76
2021/07/20 13:45:10;;;;;;;7.22;2.33;;;;;;;;;;5019539;28;20072;-76
2021/07/20 13:47:42;;;;;;;4.65;2.28;;;;;;;;;;5018776;28;20064;-75
2021/07/20 13:50:09;;;;;;;4.07;2.00;;;;;;;;;;5016112;28;20501;-76
2021/07/20 13:52:37;;;;;;;5.63;2.03;;;;;;;;;;5012636;28;20116;-75
2021/07/20 13:55:07;;;;;;;6.53;2.78;;;;;;;;;;5017916;28;20563;-76
2021/07/20 13:57:35;;;;;;;5.50;2.50;;;;;;;;;;4997662;28;20116;-76
2021/07/20 14:00:02;;;;;;;8.02;2.42;;;;;;;;;;5013831;28;20502;-76
2021/07/20 14:02:29;;;;;;;4.03;1.92;;;;;;;;;;5007400;28;20112;-76
2021/07/20 14:04:55;;;;;;;5.28;2.38;;;;;;;;;;5007628;28;20066;-76
2021/07/20 14:07:22;;;;;;;5.75;2.65;;;;;;;;;;5006556;28;20045;-76
2021/07/20 14:09:53;;;;;;;4.25;2.20;;;;;;;;;;5001575;28;20501;-76
2021/07/20 14:12:20;;;;;;;3.78;2.10;;;;;;;;;;5004446;28;20061;-76
2021/07/20 14:14:48;;;;;;;4.78;2.45;;;;;;;;;;5009271;28;20069;-76
2021/07/20 14:17:15;;;;;;;5.30;2.17;;;;;;;;;;5013182;28;20064;-76
2021/07/20 14:19:42;;;;;;;4.90;2.55;;;;;;;;;;5007982;28;20506;-75
2021/07/20 14:22:08;;;;;;;4.90;1.88;;;;;;;;;;5012072;28;20115;-76
2021/07/20 14:24:35;;;;;;;5.47;1.98;;;;;;;;;;5011389;28;20845;-76
2021/07/20 14:27:02;;;;;;;4.05;2.03;;;;;;;;;;5002799;28;20060;-75
2021/07/20 14:29:30;;;;;;;5.63;1.85;;;;;;;;;;5007535;28;20082;-75
2021/07/20 14:32:20;;;;;;;4.97;2.50;;;;;;;;;;5009809;28;20054;-76
2021/07/20 14:34:51;;;;;;;4.60;2.05;;;;;;;;;;5006486;28;20108;-76
2021/07/20 14:37:37;;;;;;;5.35;2.10;;;;;;;;;;5011667;28;20077;-76
2021/07/20 14:40:08;;;;;;;5.15;2.00;;;;;;;;;;5013777;28;20509;-76
2021/07/20 14:42:34;;;;;;;;;;;;;;;;;;5018672;28;20038;-76
2021/07/20 14:45:02;;;;;;;5.25;2.10;;;;;;;;;;5019385;28;20247;-76
2021/07/20 14:47:32;;;;;;;3.83;1.90;;;;;;;;;;5032471;28;20038;-77
2021/07/20 14:50:02;;;;;;;4.20;1.80;;;;;;;;;;5033449;28;20034;-76
2021/07/20 14:52:37;;;;;;;4.93;1.80;;;;;;;;;;5036293;28;21167;-76
2021/07/20 14:55:11;;;;;;;4.70;1.90;;;;;;;;;;5025396;28;20046;-76
2021/07/20 14:57:43;;;;;;;3.55;1.70;;;;;;;;;;5013422;28;20034;-76
2021/07/20 15:00:10;;;;;;;3.67;2.00;;;;;;;;;;5004660;28;21336;-76
2021/07/20 15:02:37;;;;;;;2.83;1.58;;;;;;;;;;5007913;28;20057;-76
2021/07/20 15:05:23;;;;;;;3.40;1.60;;;;;;;;;;5005350;28;20097;-76